createdAt,value
2022-10-02T00:02:14.432Z,1.48
2022-10-02T00:04:43.999Z,0.90
2022-10-02T00:07:12.070Z,1.08
2022-10-02T00:09:55.885Z,1.55
2022-10-02T00:12:26.316Z,1.15
2022-10-02T00:15:00.235Z,1.10
2022-10-02T00:17:33.626Z,1.10
2022-10-02T00:20:01.536Z,1.13
2022-10-02T00:22:55.374Z,1.15
2022-10-02T00:26:00.454Z,1.52
2022-10-02T00:28:36.147Z,1.85
2022-10-02T00:31:25.121Z,0.95
2022-10-02T00:34:23.987Z,1.20
2022-10-02T00:37:02.270Z,1.20
2022-10-02T00:40:01.454Z,1.20
2022-10-02T00:42:52.263Z,1.30
2022-10-02T00:45:42.992Z,1.05
2022-10-02T00:48:38.868Z,1.15
2022-10-02T00:51:17.786Z,1.20
2022-10-02T00:54:13.224Z,1.10
2022-10-02T00:56:54.010Z,1.05
2022-10-02T00:59:32.630Z,1.00
2022-10-02T01:02:07.889Z,1.00
2022-10-02T01:04:39.087Z,1.25
2022-10-02T01:07:10.101Z,1.25
2022-10-02T01:09:39.086Z,0.95
2022-10-02T01:12:06.768Z,1.15
2022-10-02T01:14:35.178Z,1.00
2022-10-02T01:17:02.747Z,0.80
2022-10-02T01:19:37.567Z,1.20
2022-10-02T01:22:27.852Z,1.52
2022-10-02T01:24:59.229Z,0.90
2022-10-02T01:27:27.051Z,0.98
2022-10-02T01:30:01.830Z,1.40
2022-10-02T01:32:29.529Z,1.10
2022-10-02T01:34:56.739Z,1.55
2022-10-02T01:37:27.138Z,1.20
2022-10-02T01:39:54.156Z,0.80
2022-10-02T01:42:22.029Z,1.10
2022-10-02T01:44:48.945Z,1.08
2022-10-02T01:47:35.308Z,1.10
2022-10-02T01:50:24.201Z,1.20
2022-10-02T01:53:28.823Z,1.30
2022-10-02T01:56:07.970Z,1.27
2022-10-02T01:58:42.908Z,1.92
2022-10-02T02:01:18.636Z,1.67
2022-10-02T02:04:19.825Z,1.30
2022-10-02T02:06:56.756Z,1.15
2022-10-02T02:09:39.442Z,1.30
2022-10-02T02:12:08.928Z,1.40
2022-10-02T02:15:09.711Z,1.23
2022-10-02T02:17:46.764Z,1.10
2022-10-02T02:20:25.115Z,1.40
2022-10-02T02:22:54.846Z,1.42
2022-10-02T02:25:27.129Z,1.50
2022-10-02T02:28:04.792Z,1.60
2022-10-02T02:30:33.862Z,1.70
2022-10-02T02:33:05.759Z,1.30
2022-10-02T02:35:44.011Z,1.60
2022-10-02T02:38:19.091Z,1.63
2022-10-02T02:40:46.949Z,1.55
2022-10-02T02:43:28.333Z,1.40
2022-10-02T02:46:04.194Z,1.55
2022-10-02T02:48:39.379Z,1.52
2022-10-02T02:51:15.829Z,1.58
2022-10-02T02:53:55.891Z,1.67
2022-10-02T02:56:23.180Z,1.88
2022-10-02T02:58:56.496Z,1.65
2022-10-02T03:01:23.437Z,1.75
2022-10-02T03:03:50.237Z,1.48
2022-10-02T03:06:17.354Z,1.75
2022-10-02T03:08:46.084Z,2.00
2022-10-02T03:11:36.949Z,2.05
2022-10-02T03:14:09.811Z,1.30
2022-10-02T03:17:03.693Z,1.55
2022-10-02T03:19:45.957Z,1.83
2022-10-02T03:22:43.292Z,1.90
2022-10-02T03:25:22.853Z,1.33
2022-10-02T03:28:07.948Z,1.52
2022-10-02T03:30:37.610Z,1.55
2022-10-02T03:33:06.470Z,1.70
2022-10-02T03:35:33.764Z,2.03
2022-10-02T03:38:04.995Z,2.00
2022-10-02T03:40:31.854Z,1.52
2022-10-02T03:42:58.943Z,2.10
2022-10-02T03:45:49.554Z,1.60
2022-10-02T03:48:14.872Z,1.58
2022-10-02T03:50:41.678Z,1.75
2022-10-02T03:53:17.611Z,1.50
2022-10-02T03:55:55.093Z,1.60
2022-10-02T03:58:22.185Z,1.67
2022-10-02T04:00:48.919Z,2.30
2022-10-02T04:03:21.735Z,2.22
2022-10-02T04:05:59.947Z,1.67
2022-10-02T04:09:04.703Z,2.30
2022-10-02T04:11:37.129Z,1.80
2022-10-02T04:14:35.269Z,1.88
2022-10-02T04:17:10.006Z,1.67
2022-10-02T04:19:43.402Z,2.03
2022-10-02T04:22:13.210Z,1.60
2022-10-02T04:24:47.246Z,1.83
2022-10-02T04:27:19.561Z,1.50
2022-10-02T04:29:57.283Z,1.80
2022-10-02T04:32:27.333Z,1.70
2022-10-02T04:34:54.567Z,1.50
2022-10-02T04:37:56.511Z,1.77
2022-10-02T04:40:32.806Z,1.67
2022-10-02T04:43:22.061Z,1.60
2022-10-02T04:46:09.186Z,1.95
2022-10-02T04:48:38.711Z,1.10
2022-10-02T04:51:27.305Z,1.58
2022-10-02T04:54:10.484Z,1.75
2022-10-02T04:56:56.019Z,1.65
2022-10-02T05:00:04.553Z,1.50
2022-10-02T05:02:39.890Z,1.13
2022-10-02T05:05:25.463Z,1.40
2022-10-02T05:08:03.379Z,1.13
2022-10-02T05:10:36.565Z,1.50
2022-10-02T05:13:31.386Z,1.00
2022-10-02T05:16:16.229Z,1.23
2022-10-02T05:19:06.078Z,1.42
2022-10-02T05:21:44.939Z,1.08
2022-10-02T05:24:30.341Z,0.95
2022-10-02T05:27:41.792Z,0.85
2022-10-02T05:30:17.176Z,0.90
2022-10-02T05:32:55.950Z,1.10
2022-10-02T05:35:25.532Z,0.90
2022-10-02T05:38:15.690Z,1.10
2022-10-02T05:41:03.046Z,1.00
2022-10-02T05:43:42.916Z,1.17
2022-10-02T05:46:20.207Z,1.30
2022-10-02T05:48:53.189Z,1.10
2022-10-02T05:51:36.918Z,0.90
2022-10-02T05:54:25.712Z,1.00
2022-10-02T05:57:01.736Z,1.10
2022-10-02T05:59:34.536Z,1.05
2022-10-02T06:02:11.449Z,1.10
2022-10-02T06:04:44.231Z,1.45
2022-10-02T06:07:14.591Z,1.15
2022-10-02T06:10:03.219Z,1.02
2022-10-02T06:12:42.278Z,0.80
2022-10-02T06:15:24.591Z,0.98
2022-10-02T06:17:58.267Z,1.30
2022-10-02T06:20:48.987Z,0.80
2022-10-02T06:23:39.628Z,0.60
2022-10-02T06:26:29.318Z,0.70
2022-10-02T06:29:11.285Z,1.00
2022-10-02T06:32:04.245Z,0.90
2022-10-02T06:34:31.162Z,1.00
2022-10-02T06:36:57.864Z,1.08
2022-10-02T06:39:37.087Z,0.70
2022-10-02T06:42:33.271Z,1.13
2022-10-02T06:45:18.589Z,1.00
2022-10-02T06:48:05.464Z,1.40
2022-10-02T06:50:32.207Z,0.98
2022-10-02T06:53:20.329Z,1.00
2022-10-02T06:55:50.090Z,0.77
2022-10-02T06:58:37.655Z,0.60
2022-10-02T07:01:38.905Z,0.80
2022-10-02T07:04:16.910Z,0.60
2022-10-02T07:07:24.479Z,0.50
2022-10-02T07:10:03.957Z,0.60
2022-10-02T07:12:50.386Z,0.60
2022-10-02T07:15:22.707Z,0.80
2022-10-02T07:18:11.210Z,0.70
2022-10-02T07:20:53.008Z,0.60
2022-10-02T07:23:35.206Z,0.50
2022-10-02T07:26:13.971Z,0.60
2022-10-02T07:28:45.421Z,0.55
2022-10-02T07:31:20.962Z,0.57
2022-10-02T07:34:13.454Z,0.50
2022-10-02T07:37:22.166Z,0.60
2022-10-02T07:40:35.436Z,0.43
2022-10-02T07:43:22.673Z,1.05
2022-10-02T07:46:17.079Z,1.80
2022-10-02T07:49:01.133Z,1.25
2022-10-02T07:51:50.115Z,1.00
2022-10-02T07:54:25.522Z,0.88
2022-10-02T07:56:56.799Z,0.73
2022-10-02T07:59:23.762Z,0.85
2022-10-02T08:01:52.137Z,0.60
2022-10-02T08:04:34.605Z,0.50
2022-10-02T08:07:06.513Z,0.65
2022-10-02T08:09:48.939Z,0.50
2022-10-02T08:12:38.516Z,0.43
2022-10-02T08:15:06.235Z,0.30
2022-10-02T08:17:43.237Z,0.40
2022-10-02T08:20:21.044Z,0.30
2022-10-02T08:22:58.096Z,0.40
2022-10-02T08:25:27.459Z,0.30
2022-10-02T08:28:00.918Z,0.30
2022-10-02T08:30:28.107Z,0.30
2022-10-02T08:32:55.265Z,0.28
2022-10-02T08:35:27.827Z,0.20
2022-10-02T08:38:19.994Z,0.20
2022-10-02T08:41:28.139Z,0.20
2022-10-02T08:44:14.027Z,0.20
2022-10-02T08:46:44.138Z,0.20
2022-10-02T08:49:27.170Z,0.28
2022-10-02T08:52:12.131Z,0.20
2022-10-02T08:55:03.467Z,0.20
2022-10-02T08:57:48.388Z,0.30
2022-10-02T09:00:33.968Z,0.20
2022-10-02T09:03:27.810Z,0.20
2022-10-02T09:06:27.378Z,0.20
2022-10-02T09:09:22.279Z,0.30
2022-10-02T09:12:13.397Z,0.17
2022-10-02T09:14:56.902Z,0.10
2022-10-02T09:17:48.169Z,0.20
2022-10-02T09:20:39.458Z,0.20
2022-10-02T09:23:21.475Z,0.20
2022-10-02T09:26:13.545Z,0.30
2022-10-02T09:28:55.130Z,0.22
2022-10-02T09:31:44.185Z,0.30
2022-10-02T09:34:48.387Z,0.30
2022-10-02T09:37:16.130Z,0.20
2022-10-02T09:39:58.379Z,0.17
2022-10-02T09:43:02.307Z,0.20
2022-10-02T09:45:51.311Z,0.20
2022-10-02T09:48:32.882Z,0.30
2022-10-02T09:51:14.755Z,0.30
2022-10-02T09:54:00.353Z,0.20
2022-10-02T09:56:49.174Z,0.20
2022-10-02T09:59:24.812Z,0.20
2022-10-02T10:02:26.093Z,0.20
2022-10-02T10:05:06.119Z,0.20
2022-10-02T10:07:57.510Z,0.20
2022-10-02T10:10:39.495Z,0.28
2022-10-02T10:13:28.056Z,0.20
2022-10-02T10:16:13.556Z,0.20
2022-10-02T10:19:14.051Z,0.20
2022-10-02T10:22:06.914Z,0.20
2022-10-02T10:25:04.965Z,0.17
2022-10-02T10:27:59.371Z,0.10
2022-10-02T10:30:56.702Z,0.30
2022-10-02T10:34:05.157Z,0.20
2022-10-02T10:37:14.549Z,0.13
2022-10-02T10:40:35.992Z,0.10
2022-10-02T10:43:07.875Z,0.30
2022-10-02T10:46:02.885Z,0.20
2022-10-02T10:48:38.905Z,0.20
2022-10-02T10:51:24.176Z,0.28
2022-10-02T10:54:31.482Z,0.22
2022-10-02T10:57:19.950Z,0.15
2022-10-02T11:00:08.846Z,0.20
2022-10-02T11:02:38.722Z,0.20
2022-10-02T11:05:43.022Z,0.30
2022-10-02T11:08:33.944Z,0.20
2022-10-02T11:11:27.875Z,0.30
2022-10-02T11:14:24.107Z,0.30
2022-10-02T11:17:27.991Z,0.20
2022-10-02T11:20:10.293Z,0.22
2022-10-02T11:22:49.345Z,0.17
2022-10-02T11:25:22.401Z,0.20
2022-10-02T11:27:57.575Z,0.25
2022-10-02T11:30:26.233Z,0.30
2022-10-02T11:33:11.969Z,0.30
2022-10-02T11:35:51.015Z,0.30
2022-10-02T11:38:52.052Z,0.40
2022-10-02T11:41:31.553Z,0.20
2022-10-02T11:44:22.236Z,0.30
2022-10-02T11:47:01.795Z,0.30
2022-10-02T11:50:02.093Z,0.20
2022-10-02T11:52:53.149Z,0.30
2022-10-02T11:55:28.866Z,0.20
2022-10-02T11:58:26.554Z,0.30
2022-10-02T12:01:17.847Z,0.20
2022-10-02T12:04:23.034Z,0.20
2022-10-02T12:07:07.403Z,0.17
2022-10-02T12:09:49.130Z,0.17
2022-10-02T12:12:43.209Z,0.30
2022-10-02T12:15:17.862Z,0.40
2022-10-02T12:18:08.139Z,0.30
2022-10-02T12:21:02.868Z,0.28
2022-10-02T12:24:07.785Z,0.10
2022-10-02T12:27:09.637Z,0.30
2022-10-02T12:30:04.127Z,0.20
2022-10-02T12:32:49.755Z,0.40
2022-10-02T12:35:42.331Z,0.20
2022-10-02T12:38:16.739Z,0.20
2022-10-02T12:40:59.391Z,0.25
2022-10-02T12:43:50.645Z,0.28
2022-10-02T12:46:38.942Z,0.30
2022-10-02T12:49:40.518Z,0.30
2022-10-02T12:52:28.266Z,0.25
2022-10-02T12:55:25.957Z,0.20
2022-10-02T12:58:23.818Z,0.20
2022-10-02T13:01:12.240Z,0.22
2022-10-02T13:03:57.733Z,0.20
2022-10-02T13:06:52.639Z,0.32
2022-10-02T13:09:43.385Z,0.20
2022-10-02T13:12:19.525Z,0.30
2022-10-02T13:15:15.985Z,0.25
2022-10-02T13:17:55.962Z,0.30
2022-10-02T13:20:28.936Z,0.20
2022-10-02T13:23:13.769Z,0.20
2022-10-02T13:25:57.874Z,0.17
2022-10-02T13:28:46.293Z,0.10
2022-10-02T13:31:40.977Z,0.28
2022-10-02T13:34:26.432Z,0.28
2022-10-02T13:37:24.054Z,0.17
2022-10-02T13:40:19.561Z,0.10
2022-10-02T13:43:09.188Z,0.15
2022-10-02T13:45:42.771Z,0.20
2022-10-02T13:48:22.397Z,0.15
2022-10-02T13:51:06.210Z,0.20
2022-10-02T13:54:11.741Z,0.20
2022-10-02T13:56:54.081Z,0.10
2022-10-02T13:59:50.347Z,0.30
2022-10-02T14:02:35.293Z,0.28
2022-10-02T14:05:29.114Z,0.30
2022-10-02T14:08:14.564Z,0.30
2022-10-02T14:10:47.182Z,0.20
2022-10-02T14:13:42.839Z,0.30
2022-10-02T14:16:18.709Z,0.20
2022-10-02T14:19:06.034Z,0.30
2022-10-02T14:21:38.678Z,0.20
2022-10-02T14:24:52.269Z,0.32
2022-10-02T14:27:43.726Z,0.20
2022-10-02T14:30:42.458Z,0.20
2022-10-02T14:33:30.019Z,0.20
2022-10-02T14:36:11.723Z,0.20
2022-10-02T14:38:38.434Z,0.25
2022-10-02T14:41:49.087Z,0.30
2022-10-02T14:44:31.134Z,0.20
2022-10-02T14:47:15.267Z,0.40
2022-10-02T14:50:19.647Z,0.43
2022-10-02T14:53:17.274Z,0.30
2022-10-02T14:55:59.461Z,0.30
2022-10-02T14:58:47.352Z,0.30
2022-10-02T15:01:17.408Z,0.30
2022-10-02T15:04:09.393Z,0.30
2022-10-02T15:07:05.129Z,0.22
2022-10-02T15:09:59.310Z,0.17
2022-10-02T15:12:43.588Z,0.40
2022-10-02T15:15:49.643Z,0.50
2022-10-02T15:18:41.966Z,1.50
2022-10-02T15:21:39.565Z,1.42
2022-10-02T15:24:27.668Z,1.50
2022-10-02T15:27:18.334Z,1.50
2022-10-02T15:30:18.080Z,1.27
2022-10-02T15:33:17.235Z,0.85
2022-10-02T15:35:52.419Z,0.70
2022-10-02T15:38:29.583Z,0.55
2022-10-02T15:40:56.338Z,0.43
2022-10-02T15:43:30.842Z,0.20
2022-10-02T15:45:57.619Z,0.40
2022-10-02T15:48:51.565Z,0.38
2022-10-02T15:51:37.311Z,0.50
2022-10-02T15:54:10.083Z,0.50
2022-10-02T15:56:47.232Z,0.30
2022-10-02T15:59:37.414Z,0.30
2022-10-02T16:02:06.907Z,0.20
2022-10-02T16:04:48.866Z,0.20
2022-10-02T16:07:35.477Z,0.20
2022-10-02T16:10:27.273Z,0.35
2022-10-02T16:13:22.175Z,0.30
2022-10-02T16:15:54.808Z,0.47
2022-10-02T16:18:33.307Z,0.45
2022-10-02T16:21:39.486Z,0.30
2022-10-02T16:24:43.052Z,0.40
2022-10-02T16:27:32.871Z,0.50
2022-10-02T16:30:13.363Z,0.52
2022-10-02T16:32:51.969Z,0.32
2022-10-02T16:35:43.808Z,0.68
2022-10-02T16:38:18.412Z,0.40
2022-10-02T16:41:13.646Z,0.30
2022-10-02T16:43:40.378Z,0.30
2022-10-02T16:46:07.211Z,0.40
2022-10-02T16:49:11.303Z,0.30
2022-10-02T16:52:05.097Z,0.20
2022-10-02T16:54:47.453Z,0.22
2022-10-02T16:57:29.584Z,0.20
2022-10-02T17:00:16.723Z,0.30
2022-10-02T17:02:49.470Z,0.30
2022-10-02T17:05:41.845Z,0.22
2022-10-02T17:08:27.980Z,0.30
2022-10-02T17:11:19.618Z,0.30
2022-10-02T17:14:09.484Z,0.40
2022-10-02T17:16:45.531Z,0.30
2022-10-02T17:19:32.537Z,0.30
2022-10-02T17:22:28.764Z,0.30
2022-10-02T17:25:17.551Z,0.30
2022-10-02T17:27:52.389Z,0.40
2022-10-02T17:30:27.061Z,0.30
2022-10-02T17:33:21.777Z,0.50
2022-10-02T17:35:54.388Z,0.50
2022-10-02T17:39:03.790Z,0.30
2022-10-02T17:41:54.631Z,0.20
2022-10-02T17:44:34.194Z,0.20
2022-10-02T17:47:03.810Z,0.20
2022-10-02T17:49:57.853Z,0.20
2022-10-02T17:53:06.268Z,0.10
2022-10-02T17:55:57.790Z,0.20
2022-10-02T17:58:24.503Z,0.20
2022-10-02T18:01:24.926Z,0.20
2022-10-02T18:03:57.470Z,0.20
2022-10-02T18:06:54.402Z,0.10
2022-10-02T18:09:41.460Z,0.20
2022-10-02T18:12:26.609Z,0.10
2022-10-02T18:15:25.144Z,0.20
2022-10-02T18:18:08.410Z,0.20
2022-10-02T18:20:42.947Z,0.20
2022-10-02T18:23:34.357Z,0.30
2022-10-02T18:26:23.255Z,0.20
2022-10-02T18:29:01.754Z,0.30
2022-10-02T18:32:10.450Z,0.40
2022-10-02T18:34:48.495Z,0.38
2022-10-02T18:37:22.575Z,0.20
2022-10-02T18:40:23.333Z,0.30
2022-10-02T18:43:08.385Z,0.30
2022-10-02T18:46:09.143Z,0.28
2022-10-02T18:48:56.596Z,0.38
2022-10-02T18:51:32.870Z,0.38
2022-10-02T18:54:07.821Z,0.40
2022-10-02T18:57:09.621Z,0.20
2022-10-02T19:00:02.559Z,0.30
2022-10-02T19:03:10.545Z,0.50
2022-10-02T19:06:07.250Z,0.60
2022-10-02T19:09:03.918Z,0.40
2022-10-02T19:11:33.927Z,0.43
2022-10-02T19:14:16.074Z,0.40
2022-10-02T19:17:20.368Z,0.30
2022-10-02T19:19:47.131Z,0.30
2022-10-02T19:22:19.590Z,0.25
2022-10-02T19:25:11.297Z,0.50
2022-10-02T19:27:38.487Z,0.30
2022-10-02T19:30:07.961Z,0.30
2022-10-02T19:32:40.457Z,0.30
2022-10-02T19:35:33.608Z,0.30
2022-10-02T19:38:31.051Z,0.50
2022-10-02T19:41:00.520Z,0.40
2022-10-02T19:43:31.066Z,0.40
2022-10-02T19:46:02.060Z,0.50
2022-10-02T19:48:30.258Z,0.50
2022-10-02T19:51:03.167Z,0.40
2022-10-02T19:53:34.641Z,0.60
2022-10-02T19:56:11.457Z,0.55
2022-10-02T19:58:50.510Z,0.40
2022-10-02T20:01:30.255Z,0.40
2022-10-02T20:04:02.694Z,0.40
2022-10-02T20:06:35.013Z,0.30
2022-10-02T20:09:12.680Z,0.30
2022-10-02T20:11:44.175Z,0.40
2022-10-02T20:14:17.918Z,0.50
2022-10-02T20:17:03.809Z,0.43
2022-10-02T20:19:34.452Z,0.52
2022-10-02T20:22:11.552Z,0.30
2022-10-02T20:24:56.768Z,0.45
2022-10-02T20:27:41.637Z,0.38
2022-10-02T20:30:17.948Z,0.40
2022-10-02T20:33:07.078Z,0.40
2022-10-02T20:35:40.626Z,0.60
2022-10-02T20:38:29.166Z,0.55
2022-10-02T20:40:58.208Z,1.00
2022-10-02T20:43:35.831Z,0.90
2022-10-02T20:46:19.194Z,0.70
2022-10-02T20:49:08.551Z,0.70
2022-10-02T20:52:05.232Z,0.40
2022-10-02T20:55:01.196Z,0.40
2022-10-02T20:58:01.689Z,0.63
2022-10-02T21:00:42.974Z,0.68
2022-10-02T21:03:17.541Z,0.43
2022-10-02T21:05:53.708Z,0.60
2022-10-02T21:08:56.951Z,0.80
2022-10-02T21:11:35.754Z,0.45
2022-10-02T21:14:09.360Z,0.30
2022-10-02T21:16:55.087Z,0.38
2022-10-02T21:19:34.239Z,0.90
2022-10-02T21:22:46.272Z,1.33
2022-10-02T21:25:35.643Z,1.42
2022-10-02T21:28:27.474Z,2.50
2022-10-02T21:31:25.332Z,3.35
2022-10-02T21:34:30.320Z,3.90
2022-10-02T21:37:04.274Z,5.38
2022-10-02T21:39:55.891Z,4.82
2022-10-02T21:42:47.095Z,2.88
2022-10-02T21:45:32.901Z,2.65
2022-10-02T21:48:05.545Z,1.58
2022-10-02T21:51:12.024Z,1.70
2022-10-02T21:54:19.028Z,0.95
2022-10-02T21:57:11.649Z,1.20
2022-10-02T21:59:59.633Z,1.15
2022-10-02T22:03:04.488Z,1.02
2022-10-02T22:05:52.703Z,0.98
2022-10-02T22:08:28.313Z,1.10
2022-10-02T22:11:09.660Z,0.70
2022-10-02T22:13:39.327Z,0.68
2022-10-02T22:16:31.958Z,1.52
2022-10-02T22:19:43.883Z,0.70
2022-10-02T22:22:20.675Z,0.60
2022-10-02T22:25:09.782Z,0.60
2022-10-02T22:27:51.709Z,0.40
2022-10-02T22:30:26.022Z,0.60
2022-10-02T22:33:10.893Z,0.40
2022-10-02T22:35:43.541Z,0.50
2022-10-02T22:38:26.144Z,0.40
2022-10-02T22:41:02.461Z,0.40
2022-10-02T22:43:47.165Z,0.35
2022-10-02T22:46:22.895Z,0.30
2022-10-02T22:49:05.913Z,0.40
2022-10-02T22:52:07.161Z,0.60
2022-10-02T22:55:22.335Z,0.50
2022-10-02T22:58:15.412Z,0.70
2022-10-02T23:01:27.539Z,0.70
2022-10-02T23:04:03.367Z,0.60
2022-10-02T23:06:36.781Z,0.55
2022-10-02T23:09:24.454Z,0.57
2022-10-02T23:12:06.924Z,0.40
2022-10-02T23:15:00.738Z,0.40
2022-10-02T23:17:53.971Z,0.40
2022-10-02T23:20:53.204Z,0.40
2022-10-02T23:23:25.298Z,0.60
2022-10-02T23:26:09.064Z,0.40
2022-10-02T23:29:03.335Z,0.35
2022-10-02T23:31:35.836Z,0.47
2022-10-02T23:34:27.321Z,0.95
2022-10-02T23:37:11.841Z,1.40
2022-10-02T23:40:02.748Z,1.33
2022-10-02T23:42:39.704Z,0.95
2022-10-02T23:45:27.248Z,0.80
2022-10-02T23:47:59.003Z,0.85
2022-10-02T23:50:32.209Z,0.65
2022-10-02T23:53:22.705Z,0.40
2022-10-02T23:56:16.895Z,0.43
2022-10-02T23:59:04.309Z,0.40
